createdAt,value
2018-01-27T00:02:21.008Z,16.33
2018-01-27T00:04:50.231Z,16.77
2018-01-27T00:07:18.513Z,16.10
2018-01-27T00:09:46.789Z,18.40
2018-01-27T00:12:15.068Z,18.37
2018-01-27T00:14:44.111Z,16.40
2018-01-27T00:17:12.423Z,15.73
2018-01-27T00:19:40.898Z,17.30
2018-01-27T00:22:09.381Z,15.83
2018-01-27T00:24:37.657Z,16.17
2018-01-27T00:27:05.935Z,18.30
2018-01-27T00:29:34.315Z,18.57
2018-01-27T00:32:02.593Z,18.50
2018-01-27T00:34:30.875Z,17.23
2018-01-27T00:36:59.348Z,20.57
2018-01-27T00:39:27.599Z,17.93
2018-01-27T00:41:55.907Z,15.10
2018-01-27T00:44:24.184Z,17.10
2018-01-27T00:46:52.591Z,18.40
2018-01-27T00:49:21.635Z,16.80
2018-01-27T00:51:49.904Z,18.60
2018-01-27T00:54:18.209Z,18.73
2018-01-27T00:56:46.488Z,16.97
2018-01-27T00:59:14.779Z,16.57
2018-01-27T01:01:43.052Z,18.53
2018-01-27T01:04:12.872Z,18.80
2018-01-27T01:06:41.252Z,17.73
2018-01-27T01:09:09.526Z,16.77
2018-01-27T01:11:37.802Z,17.50
2018-01-27T01:14:07.590Z,17.53
2018-01-27T01:16:35.851Z,18.10
2018-01-27T01:19:04.131Z,16.73
2018-01-27T01:21:32.402Z,18.97
2018-01-27T01:24:00.680Z,15.47
2018-01-27T01:26:28.959Z,17.23
2018-01-27T01:28:57.225Z,18.93
2018-01-27T01:31:25.531Z,20.07
2018-01-27T01:33:53.812Z,18.27
2018-01-27T01:36:22.080Z,16.47
2018-01-27T01:38:50.347Z,18.07
2018-01-27T01:41:18.627Z,18.70
2018-01-27T01:43:52.564Z,18.67
2018-01-27T01:46:20.927Z,19.73
2018-01-27T01:48:49.316Z,18.70
2018-01-27T01:51:17.576Z,17.93
2018-01-27T01:53:45.870Z,17.90
2018-01-27T01:56:14.251Z,16.80
2018-01-27T01:58:42.528Z,18.20
2018-01-27T02:01:10.906Z,18.00
2018-01-27T02:03:39.392Z,18.33
2018-01-27T02:06:07.768Z,20.77
2018-01-27T02:08:36.016Z,16.03
2018-01-27T02:11:04.304Z,19.03
2018-01-27T02:13:33.418Z,20.87
2018-01-27T02:16:01.740Z,18.83
2018-01-27T02:18:30.894Z,18.03
2018-01-27T02:20:59.184Z,20.53
2018-01-27T02:23:28.972Z,18.00
2018-01-27T02:25:57.231Z,17.83
2018-01-27T02:28:25.536Z,18.63
2018-01-27T02:30:53.913Z,19.03
2018-01-27T02:33:22.400Z,18.57
2018-01-27T02:35:50.648Z,17.50
2018-01-27T02:38:18.939Z,18.17
2018-01-27T02:40:47.242Z,17.00
2018-01-27T02:43:17.075Z,19.67
2018-01-27T02:45:46.820Z,19.77
2018-01-27T02:48:15.115Z,18.67
2018-01-27T02:50:43.397Z,18.60
2018-01-27T02:53:11.685Z,17.93
2018-01-27T02:55:40.107Z,18.40
2018-01-27T02:58:09.172Z,18.83
2018-01-27T03:00:37.541Z,20.40
2018-01-27T03:03:05.922Z,20.10
2018-01-27T03:05:34.228Z,19.03
2018-01-27T03:08:03.257Z,18.13
2018-01-27T03:10:31.531Z,20.17
2018-01-27T03:12:59.871Z,18.93
2018-01-27T03:15:28.230Z,19.30
2018-01-27T03:17:56.712Z,20.30
2018-01-27T03:20:25.040Z,19.53
2018-01-27T03:22:54.118Z,19.37
2018-01-27T03:25:24.020Z,18.30
2018-01-27T03:27:52.299Z,21.13
2018-01-27T03:30:20.655Z,18.77
2018-01-27T03:32:49.041Z,18.93
2018-01-27T03:35:17.323Z,19.90
2018-01-27T03:37:45.608Z,17.30
2018-01-27T03:40:14.735Z,18.33
2018-01-27T03:42:43.017Z,15.87
2018-01-27T03:45:11.359Z,15.80
2018-01-27T03:47:41.139Z,17.87
2018-01-27T03:50:09.418Z,18.30
2018-01-27T03:52:37.791Z,16.60
2018-01-27T03:55:06.055Z,18.30
2018-01-27T03:57:34.365Z,19.70
2018-01-27T04:00:02.619Z,17.10
2018-01-27T04:02:30.927Z,18.83
2018-01-27T04:04:59.300Z,16.03
2018-01-27T04:07:27.620Z,16.07
2018-01-27T04:09:56.646Z,17.87
2018-01-27T04:12:24.919Z,16.10
2018-01-27T04:14:53.328Z,15.83
2018-01-27T04:17:21.605Z,15.63
2018-01-27T04:19:49.986Z,14.93
2018-01-27T04:22:18.262Z,16.43
2018-01-27T04:24:46.538Z,14.30
2018-01-27T04:27:14.822Z,15.80
2018-01-27T04:29:43.107Z,16.07
2018-01-27T04:32:13.012Z,15.83
2018-01-27T04:34:41.494Z,13.57
2018-01-27T04:37:09.973Z,15.13
2018-01-27T04:39:38.251Z,13.67
2018-01-27T04:42:06.512Z,15.63
2018-01-27T04:44:34.788Z,13.67
2018-01-27T04:47:03.051Z,15.50
2018-01-27T04:49:31.332Z,15.90
2018-01-27T04:51:59.583Z,15.93
2018-01-27T04:54:27.865Z,18.90
2018-01-27T04:56:56.205Z,14.57
2018-01-27T04:59:24.484Z,17.30
2018-01-27T05:01:53.504Z,16.90
2018-01-27T05:04:22.552Z,14.90
2018-01-27T05:06:50.816Z,15.77
2018-01-27T05:09:19.111Z,15.00
2018-01-27T05:11:47.375Z,16.63
2018-01-27T05:14:15.670Z,13.93
2018-01-27T05:16:43.943Z,14.77
2018-01-27T05:19:12.224Z,16.03
2018-01-27T05:21:40.601Z,14.90
2018-01-27T05:24:08.862Z,14.83
2018-01-27T05:26:37.151Z,14.90
2018-01-27T05:29:05.430Z,17.30
2018-01-27T05:31:33.810Z,16.50
2018-01-27T05:34:02.071Z,17.63
2018-01-27T05:36:30.348Z,18.70
2018-01-27T05:38:58.615Z,16.50
2018-01-27T05:41:26.908Z,16.20
2018-01-27T05:43:55.192Z,14.60
2018-01-27T05:46:23.473Z,15.83
2018-01-27T05:48:51.748Z,17.30
2018-01-27T05:51:20.025Z,17.03
2018-01-27T05:53:48.297Z,18.13
2018-01-27T05:56:16.559Z,18.40
2018-01-27T05:58:45.352Z,18.27
2018-01-27T06:01:13.644Z,19.40
2018-01-27T06:03:41.921Z,17.67
2018-01-27T06:06:10.216Z,17.20
2018-01-27T06:08:38.479Z,19.07
2018-01-27T06:11:06.861Z,19.40
2018-01-27T06:13:35.147Z,19.83
2018-01-27T06:16:04.175Z,18.50
2018-01-27T06:18:32.460Z,18.10
2018-01-27T06:21:00.727Z,22.40
2018-01-27T06:23:29.768Z,17.17
2018-01-27T06:25:58.054Z,20.60
2018-01-27T06:28:26.437Z,21.00
2018-01-27T06:30:54.705Z,21.57
2018-01-27T06:33:22.989Z,21.23
2018-01-27T06:35:51.368Z,23.00
2018-01-27T06:38:19.750Z,21.47
2018-01-27T06:40:48.024Z,20.67
2018-01-27T06:43:16.302Z,19.30
2018-01-27T06:45:44.653Z,19.60
2018-01-27T06:48:12.935Z,18.27
2018-01-27T06:50:41.340Z,20.07
2018-01-27T06:53:09.612Z,19.77
2018-01-27T06:55:37.988Z,18.90
2018-01-27T06:58:06.248Z,19.00
2018-01-27T07:00:34.555Z,18.67
2018-01-27T07:03:02.812Z,17.87
2018-01-27T07:05:31.117Z,19.77
2018-01-27T07:07:59.481Z,17.73
2018-01-27T07:10:27.756Z,18.73
2018-01-27T07:12:57.276Z,18.27
2018-01-27T07:15:26.305Z,17.17
2018-01-27T07:17:55.353Z,18.83
2018-01-27T07:20:23.619Z,18.00
2018-01-27T07:22:51.897Z,18.70
2018-01-27T07:25:20.173Z,18.97
2018-01-27T07:27:48.463Z,19.27
2018-01-27T07:30:16.842Z,17.23
2018-01-27T07:32:45.109Z,18.00
2018-01-27T07:35:13.395Z,17.70
2018-01-27T07:37:41.670Z,18.00
2018-01-27T07:40:09.949Z,19.63
2018-01-27T07:42:38.225Z,19.70
2018-01-27T07:45:06.492Z,17.40
2018-01-27T07:47:34.773Z,18.80
2018-01-27T07:50:03.027Z,16.40
2018-01-27T07:52:31.336Z,18.10
2018-01-27T07:54:59.599Z,18.70
2018-01-27T07:57:27.992Z,14.60
2018-01-27T07:59:57.151Z,17.97
2018-01-27T08:02:25.409Z,17.57
2018-01-27T08:04:54.591Z,17.20
2018-01-27T08:07:23.637Z,17.10
2018-01-27T08:09:51.915Z,15.90
2018-01-27T08:12:20.183Z,14.67
2018-01-27T08:14:48.486Z,15.57
2018-01-27T08:17:16.774Z,16.83
2018-01-27T08:19:45.150Z,13.40
2018-01-27T08:22:13.400Z,13.90
2018-01-27T08:24:41.704Z,12.40
2018-01-27T08:27:09.986Z,11.60
2018-01-27T08:29:38.254Z,11.33
2018-01-27T08:32:06.520Z,11.50
2018-01-27T08:34:34.816Z,10.70
2018-01-27T08:37:03.068Z,11.90
2018-01-27T08:39:31.368Z,12.80
2018-01-27T08:42:00.011Z,11.03
2018-01-27T08:44:28.288Z,10.40
2018-01-27T08:46:56.606Z,8.70
2018-01-27T08:49:24.872Z,11.00
2018-01-27T08:51:53.127Z,9.13
2018-01-27T08:54:21.412Z,8.17
2018-01-27T08:56:49.672Z,8.60
2018-01-27T08:59:17.928Z,7.07
2018-01-27T09:01:46.971Z,10.20
2018-01-27T09:04:15.223Z,7.50
2018-01-27T09:06:43.501Z,9.37
2018-01-27T09:09:11.818Z,8.67
2018-01-27T09:11:40.093Z,8.13
2018-01-27T09:14:08.347Z,8.83
2018-01-27T09:16:36.626Z,8.17
2018-01-27T09:19:04.884Z,7.60
2018-01-27T09:21:33.972Z,7.73
2018-01-27T09:24:03.027Z,7.23
2018-01-27T09:26:31.404Z,6.50
2018-01-27T09:28:59.680Z,7.60
2018-01-27T09:31:28.727Z,6.93
2018-01-27T09:33:57.042Z,6.97
2018-01-27T09:36:25.318Z,6.50
2018-01-27T09:38:53.704Z,6.77
2018-01-27T09:41:22.078Z,6.90
2018-01-27T09:43:50.319Z,7.13
2018-01-27T09:46:18.716Z,6.33
2018-01-27T09:48:47.006Z,7.20
2018-01-27T09:51:15.255Z,6.03
2018-01-27T09:53:43.540Z,6.50
2018-01-27T09:56:11.796Z,6.50
2018-01-27T09:58:40.537Z,6.00
2018-01-27T10:01:08.819Z,6.90
2018-01-27T10:03:38.610Z,5.80
2018-01-27T10:06:06.896Z,6.50
2018-01-27T10:08:35.189Z,6.00
2018-01-27T10:11:03.432Z,7.10
2018-01-27T10:13:31.703Z,6.10
2018-01-27T10:15:59.972Z,6.43
2018-01-27T10:18:29.132Z,5.77
2018-01-27T10:20:57.511Z,6.40
2018-01-27T10:23:25.782Z,6.33
2018-01-27T10:25:54.047Z,8.40
2018-01-27T10:28:22.311Z,7.87
2018-01-27T10:30:50.593Z,7.03
2018-01-27T10:33:18.852Z,7.20
2018-01-27T10:35:47.191Z,8.70
2018-01-27T10:38:15.452Z,8.27
2018-01-27T10:40:43.728Z,6.40
2018-01-27T10:43:11.981Z,5.80
2018-01-27T10:45:40.263Z,5.27
2018-01-27T10:48:09.143Z,6.70
2018-01-27T10:50:37.426Z,7.50
2018-01-27T10:53:05.719Z,6.23
2018-01-27T10:55:34.004Z,6.20
2018-01-27T10:58:02.255Z,7.53
2018-01-27T11:00:30.512Z,6.97
2018-01-27T11:02:58.845Z,8.90
2018-01-27T11:05:27.100Z,7.47
2018-01-27T11:07:55.484Z,8.30
2018-01-27T11:10:23.752Z,8.07
2018-01-27T11:12:52.025Z,7.37
2018-01-27T11:15:20.276Z,8.47
2018-01-27T11:17:48.547Z,9.30
2018-01-27T11:20:16.811Z,7.80
2018-01-27T11:22:45.852Z,8.43
2018-01-27T11:25:14.140Z,7.60
2018-01-27T11:27:42.519Z,7.60
2018-01-27T11:30:10.900Z,8.80
2018-01-27T11:32:39.164Z,8.13
2018-01-27T11:35:07.407Z,7.97
2018-01-27T11:37:35.681Z,9.30
2018-01-27T11:40:04.024Z,8.90
2018-01-27T11:42:32.275Z,9.43
2018-01-27T11:45:00.569Z,7.77
2018-01-27T11:47:28.815Z,9.00
2018-01-27T11:49:57.092Z,8.17
2018-01-27T11:52:25.435Z,8.13
2018-01-27T11:54:54.555Z,10.03
2018-01-27T11:57:22.870Z,8.30
2018-01-27T11:59:51.144Z,7.83
2018-01-27T12:02:19.404Z,8.20
2018-01-27T12:04:47.701Z,8.30
2018-01-27T12:07:15.967Z,7.27
2018-01-27T12:09:44.256Z,8.70
2018-01-27T12:12:12.526Z,7.40
2018-01-27T12:14:40.835Z,6.63
2018-01-27T12:17:09.118Z,8.70
2018-01-27T12:19:38.188Z,8.27
2018-01-27T12:22:06.457Z,8.37
2018-01-27T12:24:34.711Z,7.83
2018-01-27T12:27:03.030Z,8.50
2018-01-27T12:29:31.284Z,10.10
2018-01-27T12:31:59.565Z,8.87
2018-01-27T12:34:27.856Z,7.37
2018-01-27T12:36:56.111Z,6.80
2018-01-27T12:39:24.699Z,8.03
2018-01-27T12:41:52.960Z,8.10
2018-01-27T12:44:21.214Z,9.97
2018-01-27T12:46:50.374Z,8.83
2018-01-27T12:49:18.751Z,8.47
2018-01-27T12:51:47.045Z,8.40
2018-01-27T12:54:16.070Z,9.63
2018-01-27T12:56:44.332Z,10.07
2018-01-27T12:59:13.498Z,9.47
2018-01-27T13:01:41.752Z,8.23
2018-01-27T13:04:10.067Z,9.27
2018-01-27T13:06:38.534Z,9.30
2018-01-27T13:09:06.800Z,10.17
2018-01-27T13:11:35.060Z,10.47
2018-01-27T13:14:04.104Z,9.57
2018-01-27T13:16:32.461Z,9.07
2018-01-27T13:19:00.720Z,8.73
2018-01-27T13:21:29.018Z,9.30
2018-01-27T13:23:57.389Z,8.30
2018-01-27T13:26:25.669Z,8.73
2018-01-27T13:28:54.052Z,9.70
2018-01-27T13:31:22.300Z,9.77
2018-01-27T13:33:50.561Z,8.90
2018-01-27T13:36:18.844Z,8.27
2018-01-27T13:38:47.179Z,8.37
2018-01-27T13:41:15.454Z,7.80
2018-01-27T13:43:43.814Z,9.87
2018-01-27T13:46:12.075Z,11.20
2018-01-27T13:48:40.334Z,8.90
2018-01-27T13:51:08.626Z,5.57
2018-01-27T13:53:36.872Z,7.00
2018-01-27T13:56:05.144Z,5.10
2018-01-27T13:58:34.167Z,5.40
2018-01-27T14:01:02.443Z,5.80
2018-01-27T14:03:30.752Z,5.53
2018-01-27T14:05:59.127Z,5.93
2018-01-27T14:08:27.557Z,5.63
2018-01-27T14:10:55.791Z,5.50
2018-01-27T14:13:24.049Z,5.87
2018-01-27T14:15:52.339Z,5.70
2018-01-27T14:18:20.621Z,5.70
2018-01-27T14:20:48.863Z,10.77
2018-01-27T14:23:17.170Z,8.67
2018-01-27T14:25:45.424Z,5.80
2018-01-27T14:28:13.723Z,6.60
2018-01-27T14:30:41.984Z,6.67
2018-01-27T14:33:10.277Z,6.80
2018-01-27T14:35:38.601Z,6.80
2018-01-27T14:38:06.841Z,7.30
2018-01-27T14:40:35.104Z,7.13
2018-01-27T14:43:03.490Z,6.43
2018-01-27T14:45:31.740Z,7.43
2018-01-27T14:48:00.021Z,7.90
2018-01-27T14:50:28.306Z,7.33
2018-01-27T14:52:56.572Z,7.70
2018-01-27T14:55:24.863Z,6.80
2018-01-27T14:57:53.146Z,8.23
2018-01-27T15:00:21.532Z,8.10
2018-01-27T15:02:49.791Z,8.40
2018-01-27T15:05:18.065Z,7.80
2018-01-27T15:07:46.356Z,8.37
2018-01-27T15:10:14.643Z,8.77
2018-01-27T15:12:43.025Z,8.57
2018-01-27T15:15:11.300Z,8.40
2018-01-27T15:17:39.556Z,9.17
2018-01-27T15:20:07.954Z,9.07
2018-01-27T15:22:36.227Z,9.67
2018-01-27T15:25:04.607Z,10.30
2018-01-27T15:27:32.881Z,9.50
2018-01-27T15:30:01.268Z,10.23
2018-01-27T15:32:29.527Z,9.97
2018-01-27T15:34:57.819Z,9.80
2018-01-27T15:37:26.099Z,9.90
2018-01-27T15:39:54.369Z,8.40
2018-01-27T15:42:22.659Z,8.70
2018-01-27T15:44:51.688Z,9.50
2018-01-27T15:47:20.832Z,10.50
2018-01-27T15:49:49.121Z,10.10
2018-01-27T15:52:17.488Z,11.80
2018-01-27T15:54:45.761Z,9.50
2018-01-27T15:57:14.043Z,10.70
2018-01-27T15:59:42.319Z,11.20
2018-01-27T16:02:10.624Z,10.73
2018-01-27T16:04:39.659Z,11.23
2018-01-27T16:07:07.948Z,11.30
2018-01-27T16:09:36.358Z,11.10
2018-01-27T16:12:04.741Z,11.57
2018-01-27T16:14:33.005Z,11.57
2018-01-27T16:17:01.291Z,10.37
2018-01-27T16:19:29.585Z,11.07
2018-01-27T16:21:58.054Z,11.00
2018-01-27T16:24:26.328Z,9.77
2018-01-27T16:26:54.615Z,11.10
2018-01-27T16:29:22.876Z,11.53
2018-01-27T16:31:51.159Z,11.73
2018-01-27T16:34:20.359Z,11.30
2018-01-27T16:36:48.616Z,10.83
2018-01-27T16:39:16.920Z,11.57
2018-01-27T16:41:45.317Z,13.05
2018-01-27T16:44:14.353Z,10.97
2018-01-27T16:46:42.639Z,11.93
2018-01-27T16:49:10.903Z,10.90
2018-01-27T16:51:39.225Z,10.87
2018-01-27T16:54:07.499Z,11.77
2018-01-27T16:56:35.875Z,12.63
2018-01-27T16:59:04.152Z,11.80
2018-01-27T17:01:32.468Z,12.00
2018-01-27T17:04:01.507Z,12.63
2018-01-27T17:06:29.814Z,12.73
2018-01-27T17:08:58.064Z,12.60
2018-01-27T17:11:26.356Z,12.80
2018-01-27T17:13:54.628Z,12.10
2018-01-27T17:16:23.014Z,12.73
2018-01-27T17:18:51.400Z,12.50
2018-01-27T17:21:19.683Z,12.87
2018-01-27T17:23:48.044Z,12.67
2018-01-27T17:26:16.308Z,12.37
2018-01-27T17:28:44.598Z,13.60
2018-01-27T17:31:12.871Z,12.27
2018-01-27T17:33:41.159Z,14.30
2018-01-27T17:36:09.447Z,14.37
2018-01-27T17:38:38.529Z,13.60
2018-01-27T17:41:06.820Z,12.97
2018-01-27T17:43:35.849Z,12.90
2018-01-27T17:46:04.897Z,14.00
2018-01-27T17:48:33.160Z,12.80
2018-01-27T17:51:01.440Z,12.87
2018-01-27T17:53:29.792Z,14.50
2018-01-27T17:55:58.072Z,13.70
2018-01-27T17:58:26.344Z,13.13
2018-01-27T18:00:54.621Z,13.47
2018-01-27T18:03:22.893Z,14.03
2018-01-27T18:05:52.039Z,11.27
2018-01-27T18:08:20.292Z,13.60
2018-01-27T18:10:48.697Z,14.43
2018-01-27T18:13:16.955Z,12.87
2018-01-27T18:15:45.265Z,16.50
2018-01-27T18:18:14.387Z,14.07
2018-01-27T18:20:43.439Z,15.17
2018-01-27T18:23:11.723Z,13.53
2018-01-27T18:25:40.101Z,15.90
2018-01-27T18:28:08.490Z,13.53
2018-01-27T18:30:37.512Z,16.07
2018-01-27T18:33:06.567Z,15.57
2018-01-27T18:35:34.946Z,14.00
2018-01-27T18:38:03.327Z,15.50
2018-01-27T18:40:31.588Z,16.13
2018-01-27T18:42:59.862Z,16.20
2018-01-27T18:45:28.149Z,15.20
2018-01-27T18:47:56.396Z,15.40
2018-01-27T18:50:24.729Z,15.23
2018-01-27T18:52:52.991Z,15.83
2018-01-27T18:55:21.289Z,15.00
2018-01-27T18:57:49.538Z,15.53
2018-01-27T19:00:17.923Z,15.73
2018-01-27T19:02:46.200Z,16.63
2018-01-27T19:05:14.515Z,15.60
2018-01-27T19:07:43.548Z,16.40
2018-01-27T19:10:11.848Z,16.40
2018-01-27T19:12:40.107Z,16.77
2018-01-27T19:15:08.371Z,17.73
2018-01-27T19:17:36.781Z,16.03
2018-01-27T19:20:05.027Z,17.13
2018-01-27T19:22:33.320Z,16.83
2018-01-27T19:25:01.612Z,16.23
2018-01-27T19:27:29.908Z,14.97
2018-01-27T19:29:58.160Z,15.80
2018-01-27T19:32:26.444Z,17.23
2018-01-27T19:34:54.823Z,16.00
2018-01-27T19:37:23.100Z,17.13
2018-01-27T19:39:51.375Z,16.07
2018-01-27T19:42:19.859Z,16.30
2018-01-27T19:44:48.103Z,17.20
2018-01-27T19:47:16.390Z,16.40
2018-01-27T19:49:44.706Z,17.20
2018-01-27T19:52:13.086Z,15.83
2018-01-27T19:54:42.118Z,15.57
2018-01-27T19:57:10.400Z,15.70
2018-01-27T19:59:38.721Z,16.60
2018-01-27T20:02:06.976Z,16.40
2018-01-27T20:04:35.386Z,16.80
2018-01-27T20:07:03.640Z,16.03
2018-01-27T20:09:32.293Z,17.57
2018-01-27T20:12:00.567Z,18.67
2018-01-27T20:14:28.943Z,17.97
2018-01-27T20:16:58.103Z,16.70
2018-01-27T20:19:27.293Z,17.00
2018-01-27T20:21:55.568Z,16.67
2018-01-27T20:24:24.172Z,18.07
2018-01-27T20:26:52.437Z,15.60
2018-01-27T20:29:20.727Z,19.23
2018-01-27T20:31:49.010Z,17.40
2018-01-27T20:34:17.281Z,17.60
2018-01-27T20:36:45.643Z,16.40
2018-01-27T20:39:13.897Z,18.10
2018-01-27T20:41:42.197Z,16.13
2018-01-27T20:44:10.451Z,19.30
2018-01-27T20:46:38.751Z,19.47
2018-01-27T20:49:07.012Z,18.33
2018-01-27T20:51:35.305Z,18.83
2018-01-27T20:54:03.567Z,18.47
2018-01-27T20:56:31.859Z,19.43
2018-01-27T20:59:00.139Z,19.07
2018-01-27T21:01:28.507Z,19.50
2018-01-27T21:03:56.772Z,21.73
2018-01-27T21:06:25.164Z,19.77
2018-01-27T21:08:53.445Z,18.57
2018-01-27T21:11:21.724Z,19.67
2018-01-27T21:13:49.996Z,18.80
2018-01-27T21:16:18.301Z,21.30
2018-01-27T21:18:46.658Z,18.97
2018-01-27T21:21:14.963Z,19.73
2018-01-27T21:23:44.037Z,20.07
2018-01-27T21:26:12.287Z,18.60
2018-01-27T21:28:40.585Z,18.60
2018-01-27T21:31:08.860Z,19.47
2018-01-27T21:33:37.256Z,21.20
2018-01-27T21:36:05.624Z,21.90
2018-01-27T21:38:33.901Z,20.20
2018-01-27T21:41:02.177Z,20.13
2018-01-27T21:43:30.451Z,20.27
2018-01-27T21:45:58.708Z,20.83
2018-01-27T21:48:27.020Z,20.13
2018-01-27T21:50:56.796Z,18.33
2018-01-27T21:53:25.075Z,19.87
2018-01-27T21:55:53.373Z,20.60
2018-01-27T21:58:21.771Z,19.27
2018-01-27T22:00:50.860Z,20.20
2018-01-27T22:03:19.231Z,20.80
2018-01-27T22:05:47.496Z,18.03
2018-01-27T22:08:15.751Z,19.10
2018-01-27T22:10:44.031Z,18.57
2018-01-27T22:13:12.337Z,23.20
2018-01-27T22:15:40.612Z,19.87
2018-01-27T22:18:08.890Z,19.33
2018-01-27T22:20:37.162Z,17.43
2018-01-27T22:23:05.444Z,17.57
2018-01-27T22:25:33.827Z,20.23
2018-01-27T22:28:02.080Z,18.83
2018-01-27T22:30:30.378Z,17.60
2018-01-27T22:32:58.654Z,16.63
2018-01-27T22:35:26.932Z,16.80
2018-01-27T22:37:55.211Z,14.57
2018-01-27T22:40:23.488Z,17.67
2018-01-27T22:42:51.790Z,16.43
2018-01-27T22:45:20.837Z,17.87
2018-01-27T22:47:49.099Z,16.20
2018-01-27T22:50:17.413Z,14.67
2018-01-27T22:52:45.896Z,17.43
2018-01-27T22:55:14.276Z,14.73
2018-01-27T22:57:42.692Z,15.70
2018-01-27T23:00:10.932Z,15.60
2018-01-27T23:02:39.208Z,16.63
2018-01-27T23:05:07.471Z,15.97
2018-01-27T23:07:35.867Z,15.80
2018-01-27T23:10:04.160Z,15.73
2018-01-27T23:12:33.034Z,16.60
2018-01-27T23:15:01.310Z,15.23
2018-01-27T23:17:29.690Z,16.13
2018-01-27T23:19:57.955Z,15.50
2018-01-27T23:22:26.349Z,12.73
2018-01-27T23:24:54.952Z,16.60
2018-01-27T23:27:24.734Z,14.90
2018-01-27T23:29:53.010Z,13.07
2018-01-27T23:32:21.401Z,13.90
2018-01-27T23:34:49.676Z,13.90
2018-01-27T23:37:17.943Z,14.03
2018-01-27T23:39:46.231Z,13.63
2018-01-27T23:42:14.493Z,11.60
2018-01-27T23:44:42.772Z,11.53
2018-01-27T23:47:11.062Z,12.37
2018-01-27T23:49:39.351Z,11.50
2018-01-27T23:52:09.256Z,11.77
2018-01-27T23:54:37.531Z,11.13
2018-01-27T23:57:06.679Z,11.97
2018-01-27T23:59:35.588Z,12.33
